Time;durP1;ratioP1;P1;durP2;ratioP2;P2;SDS_P1;SDS_P2;PMS_P1;PMS_P2;Temp;Humidity;BMP_temperature;BMP_pressure;BME280_temperature;BME280_humidity;BME280_pressure;Samples;Min_cycle;Max_cycle;Signal;HPM_P1;HPM_P2
2022/12/07 00:00:41;;;;;;;14.38;4.47;;;5.60;99.90;;;;;;5121695;27;20050;-77
2022/12/07 00:03:07;;;;;;;9.35;4.60;;;5.60;99.90;;;;;;5139945;27;20134;-77
2022/12/07 00:05:32;;;;;;;7.45;4.90;;;5.70;99.90;;;;;;5139760;27;20117;-77
2022/12/07 00:07:58;;;;;;;11.60;4.28;;;5.80;99.90;;;;;;5121688;27;20054;-77
2022/12/07 00:10:24;;;;;;;9.35;4.30;;;5.80;99.90;;;;;;5139661;27;20043;-77
2022/12/07 00:12:50;;;;;;;12.20;4.30;;;5.90;99.90;;;;;;5139580;27;20043;-77
2022/12/07 00:15:15;;;;;;;12.88;4.60;;;5.90;99.90;;;;;;5139798;27;20035;-77
2022/12/07 00:17:41;;;;;;;10.13;4.20;;;5.90;99.90;;;;;;5121599;27;20078;-77
2022/12/07 00:20:07;;;;;;;6.50;4.18;;;5.90;99.90;;;;;;5139776;27;20039;-77
2022/12/07 00:22:33;;;;;;;13.95;4.28;;;5.90;99.90;;;;;;5139482;27;20031;-77
2022/12/07 00:24:58;;;;;;;4.72;4.30;;;5.90;99.90;;;;;;5139658;27;20043;-76
2022/12/07 00:27:24;;;;;;;7.35;3.83;;;6.00;99.90;;;;;;5139207;27;20096;-77
2022/12/07 00:29:50;;;;;;;4.93;3.17;;;6.10;99.90;;;;;;5120881;27;20047;-77
2022/12/07 00:32:15;;;;;;;7.78;3.60;;;6.10;99.90;;;;;;5139232;27;20035;-77
2022/12/07 00:34:41;;;;;;;6.00;3.63;;;6.10;99.90;;;;;;5139150;27;20042;-77
2022/12/07 00:37:06;;;;;;;8.40;3.72;;;6.10;99.90;;;;;;5138316;27;20039;-77
2022/12/07 00:39:32;;;;;;;4.18;3.30;;;6.20;99.90;;;;;;5120898;27;20091;-77
2022/12/07 00:41:58;;;;;;;9.52;3.35;;;6.20;99.90;;;;;;5139095;27;20031;-76
2022/12/07 00:44:23;;;;;;;4.30;2.83;;;6.10;99.90;;;;;;5139014;27;20431;-77
2022/12/07 00:46:49;;;;;;;3.45;2.80;;;6.10;99.90;;;;;;5139289;27;20164;-77
2022/12/07 00:49:15;;;;;;;5.47;2.72;;;6.10;99.90;;;;;;5138670;27;20059;-77
2022/12/07 00:51:40;;;;;;;12.65;3.25;;;6.10;99.90;;;;;;5138923;27;20045;-77
2022/12/07 00:54:06;;;;;;;9.80;3.13;;;6.10;99.90;;;;;;5138923;27;20336;-77
2022/12/07 00:56:32;;;;;;;14.05;4.28;;;6.00;99.90;;;;;;5138752;27;20035;-77
2022/12/07 00:59:02;;;;;;;10.63;4.60;;;6.00;99.90;;;;;;5120165;27;20424;-77
2022/12/07 01:01:30;;;;;;;8.20;4.38;;;5.80;99.90;;;;;;5138709;27;20039;-77
2022/12/07 01:03:57;;;;;;;12.98;4.18;;;5.60;99.90;;;;;;5138910;27;20039;-77
2022/12/07 01:06:24;;;;;;;7.45;4.53;;;5.80;99.90;;;;;;5138578;27;20046;-76
2022/12/07 01:08:50;;;;;;;11.50;4.90;;;5.80;99.90;;;;;;5120527;27;20035;-76
2022/12/07 01:11:18;;;;;;;10.63;5.00;;;5.90;99.90;;;;;;5138253;27;20057;-77
2022/12/07 01:13:44;;;;;;;10.88;4.25;;;5.90;99.90;;;;;;5138604;27;20047;-77
2022/12/07 01:16:14;;;;;;;8.65;5.03;;;6.00;99.90;;;;;;5138389;27;20114;-77
2022/12/07 01:18:40;;;;;;;8.93;4.68;;;6.10;99.90;;;;;;5138552;27;20043;-77
2022/12/07 01:21:10;;;;;;;13.68;5.35;;;6.20;99.90;;;;;;5138361;27;20047;-77
2022/12/07 01:23:36;;;;;;;7.40;4.68;;;6.30;99.90;;;;;;5138045;27;20043;-77
2022/12/07 01:26:05;;;;;;;8.80;4.38;;;6.40;99.90;;;;;;5138538;27;20038;-77
2022/12/07 01:28:31;;;;;;;10.25;4.53;;;6.30;99.90;;;;;;5119562;27;20078;-77
2022/12/07 01:31:05;;;;;;;5.00;4.50;;;6.40;99.90;;;;;;5138312;27;20124;-77
2022/12/07 01:33:33;;;;;;;9.60;4.50;;;6.50;99.90;;;;;;5138102;27;20075;-77
2022/12/07 01:36:20;;;;;;;6.20;4.30;;;6.50;99.90;;;;;;5120256;27;20313;-77
2022/12/07 01:38:47;;;;;;;13.95;4.60;;;6.50;99.90;;;;;;5120196;27;20443;-77
2022/12/07 01:41:13;;;;;;;4.47;3.53;;;6.30;99.90;;;;;;5103243;27;20429;-77
2022/12/07 01:44:16;;;;;;;11.60;4.07;;;6.20;99.90;;;;;;5138081;27;20042;-77
2022/12/07 01:46:46;;;;;;;5.32;4.00;;;6.10;99.90;;;;;;5137469;27;20096;-77
2022/12/07 01:49:20;;;;;;;9.50;4.60;;;6.10;99.90;;;;;;5137892;27;20072;-76
2022/12/07 01:51:47;;;;;;;6.35;4.40;;;6.20;99.90;;;;;;5137756;27;20043;-77
2022/12/07 01:54:15;;;;;;;10.07;4.53;;;6.10;99.90;;;;;;5137805;27;20054;-76
2022/12/07 01:56:48;;;;;;;6.97;4.95;;;6.30;99.90;;;;;;5102566;27;20046;-77
2022/12/07 01:59:15;;;;;;;8.13;5.22;;;6.30;99.90;;;;;;5137380;27;20127;-77
2022/12/07 02:01:41;;;;;;;7.00;5.40;;;6.30;99.90;;;;;;5137944;27;20047;-76
2022/12/07 02:04:07;;;;;;;13.43;5.50;;;6.40;99.90;;;;;;5119633;27;20039;-76
2022/12/07 02:06:34;;;;;;;8.38;5.30;;;6.40;99.90;;;;;;5119673;28;20039;-77
2022/12/07 02:09:00;;;;;;;5.68;5.15;;;6.50;99.90;;;;;;5119366;27;20126;-77
2022/12/07 02:11:26;;;;;;;7.63;5.90;;;6.50;99.90;;;;;;5137531;27;20122;-77
2022/12/07 02:13:52;;;;;;;8.57;5.38;;;6.60;99.90;;;;;;5119151;27;20483;-77
2022/12/07 02:16:41;;;;;;;8.52;5.00;;;6.60;99.90;;;;;;5137585;27;20118;-77
2022/12/07 02:19:39;;;;;;;7.15;5.75;;;6.60;99.90;;;;;;5137414;28;20412;-77
2022/12/07 02:22:26;;;;;;;10.77;5.57;;;6.40;99.90;;;;;;5137624;28;20035;-77
2022/12/07 02:25:07;;;;;;;10.20;5.47;;;6.40;99.90;;;;;;5137303;28;20469;-76
2022/12/07 02:27:56;;;;;;;5.88;4.95;;;6.40;99.90;;;;;;5137766;28;20049;-76
2022/12/07 02:30:24;;;;;;;9.73;4.85;;;6.40;99.90;;;;;;5136672;28;20043;-77
2022/12/07 02:33:11;;;;;;;12.68;5.03;;;6.20;99.90;;;;;;5119443;28;20117;-77
2022/12/07 02:35:51;;;;;;;10.32;4.70;;;6.30;99.90;;;;;;5119311;28;20424;-77
2022/12/07 02:38:28;;;;;;;5.15;4.70;;;6.20;99.90;;;;;;5119179;28;20073;-76
2022/12/07 02:41:00;;;;;;;10.52;4.95;;;6.30;99.90;;;;;;5137206;28;20047;-76
2022/12/07 02:43:41;;;;;;;11.10;4.90;;;6.30;99.90;;;;;;5137363;28;20062;-76
2022/12/07 02:46:11;;;;;;;6.63;4.80;;;6.20;99.90;;;;;;5137502;28;20038;-77
2022/12/07 02:48:39;;;;;;;12.60;5.88;;;6.20;99.90;;;;;;5119055;28;20038;-76
2022/12/07 02:51:04;;;;;;;14.93;5.85;;;6.10;99.90;;;;;;5136973;28;20059;-76
2022/12/07 02:53:39;;;;;;;10.10;6.13;;;5.90;99.90;;;;;;5119115;28;20066;-77
2022/12/07 02:56:37;;;;;;;8.73;5.78;;;5.80;99.90;;;;;;5137211;28;20416;-77
2022/12/07 02:59:24;;;;;;;12.52;6.80;;;5.80;99.90;;;;;;5137660;27;20451;-76
2022/12/07 03:02:07;;;;;;;12.05;5.60;;;5.70;99.90;;;;;;5140762;27;20463;-76
2022/12/07 03:04:42;;;;;;;8.23;5.22;;;5.70;99.90;;;;;;5141186;27;20049;-77
2022/12/07 03:07:47;;;;;;;12.23;6.20;;;5.90;99.90;;;;;;5140964;27;20499;-76
2022/12/07 03:10:15;;;;;;;14.15;6.35;;;6.10;99.90;;;;;;5136134;27;20085;-77
2022/12/07 03:13:03;;;;;;;10.43;5.93;;;6.20;99.90;;;;;;5140944;27;20043;-77
2022/12/07 03:16:08;;;;;;;10.50;5.70;;;6.30;99.90;;;;;;5140941;27;20050;-77
2022/12/07 03:18:40;;;;;;;6.22;5.30;;;6.20;99.90;;;;;;5122342;27;20054;-77
2022/12/07 03:21:11;;;;;;;8.65;5.72;;;6.20;99.90;;;;;;5122442;27;20043;-76
2022/12/07 03:23:40;;;;;;;9.63;5.60;;;6.30;99.90;;;;;;5140328;27;20420;-77
2022/12/07 03:26:10;;;;;;;5.72;4.70;;;6.30;99.90;;;;;;5140422;27;20117;-77
2022/12/07 03:28:41;;;;;;;14.10;5.53;;;6.40;99.90;;;;;;5140326;27;20067;-77
2022/12/07 03:31:14;;;;;;;8.25;5.05;;;6.40;99.90;;;;;;5140370;27;20042;-77
2022/12/07 03:33:53;;;;;;;8.75;4.50;;;6.20;99.90;;;;;;5140612;27;20043;-76
2022/12/07 03:36:26;;;;;;;9.65;4.35;;;5.90;99.90;;;;;;5140327;27;20039;-76
2022/12/07 03:39:02;;;;;;;8.48;4.50;;;5.80;99.90;;;;;;5140282;27;20074;-76
2022/12/07 03:41:33;;;;;;;10.93;5.13;;;5.80;99.90;;;;;;5121797;27;20068;-76
2022/12/07 03:43:59;;;;;;;8.05;5.32;;;6.00;99.90;;;;;;5104932;27;20478;-76
2022/12/07 03:47:00;;;;;;;11.73;5.65;;;6.00;99.90;;;;;;5140295;27;20043;-76
2022/12/07 03:49:53;;;;;;;8.20;5.60;;;6.30;99.90;;;;;;5096227;27;20432;-76
2022/12/07 03:52:32;;;;;;;9.40;5.45;;;6.40;99.90;;;;;;5135835;27;20058;-76
2022/12/07 03:55:14;;;;;;;7.05;5.70;;;6.40;99.90;;;;;;5140204;27;20078;-77
2022/12/07 03:57:43;;;;;;;7.35;5.70;;;6.50;99.90;;;;;;5140011;27;20084;-76
2022/12/07 04:00:10;;;;;;;10.73;5.60;;;6.50;99.90;;;;;;5139724;27;20035;-76
2022/12/07 04:02:36;;;;;;;6.50;5.90;;;6.50;99.90;;;;;;5139823;27;20078;-76
2022/12/07 04:05:02;;;;;;;10.90;5.32;;;6.40;99.90;;;;;;5140105;27;20121;-76
2022/12/07 04:07:28;;;;;;;10.98;5.18;;;6.20;99.90;;;;;;5139940;27;20114;-76
2022/12/07 04:09:54;;;;;;;8.02;5.43;;;6.20;99.90;;;;;;5121561;27;20439;-76
2022/12/07 04:12:21;;;;;;;8.40;5.20;;;6.30;99.90;;;;;;5139880;27;20319;-76
2022/12/07 04:14:46;;;;;;;9.98;4.40;;;6.30;99.90;;;;;;5139592;27;20031;-77
2022/12/07 04:17:12;;;;;;;5.38;4.90;;;6.40;99.90;;;;;;5121765;27;20039;-77
2022/12/07 04:19:38;;;;;;;7.65;4.80;;;6.40;99.90;;;;;;5139670;27;20031;-76
2022/12/07 04:22:05;;;;;;;6.93;5.30;;;6.40;99.90;;;;;;5139658;27;20365;-76
2022/12/07 04:24:31;;;;;;;15.77;5.20;;;6.40;99.90;;;;;;5139298;27;20119;-76
2022/12/07 04:26:56;;;;;;;6.68;4.75;;;6.40;99.90;;;;;;5121113;27;20074;-76
2022/12/07 04:29:23;;;;;;;15.32;7.55;;;6.30;99.90;;;;;;5103957;27;20063;-77
2022/12/07 04:31:49;;;;;;;11.77;5.70;;;6.20;99.90;;;;;;5139476;27;20050;-76
2022/12/07 04:34:15;;;;;;;11.20;7.10;;;6.10;99.90;;;;;;5139473;27;20043;-76
2022/12/07 04:36:42;;;;;;;10.18;6.68;;;6.10;99.90;;;;;;5139114;27;20040;-76
2022/12/07 04:39:13;;;;;;;9.55;4.90;;;6.20;99.90;;;;;;5139343;27;20471;-76
2022/12/07 04:41:39;;;;;;;10.18;4.82;;;6.10;99.90;;;;;;5139058;27;20042;-76
2022/12/07 04:44:07;;;;;;;8.23;4.15;;;6.00;99.90;;;;;;5139218;27;20043;-76
2022/12/07 04:46:33;;;;;;;8.98;4.40;;;6.10;99.90;;;;;;5121014;27;20333;-76
2022/12/07 04:48:59;;;;;;;5.30;4.32;;;5.90;99.90;;;;;;5120871;27;20046;-76
2022/12/07 04:51:27;;;;;;;14.90;4.70;;;5.80;99.90;;;;;;5138675;27;20061;-77
2022/12/07 04:53:53;;;;;;;10.98;4.50;;;5.80;99.90;;;;;;5138890;27;20039;-76
2022/12/07 04:56:19;;;;;;;6.63;4.40;;;5.70;99.90;;;;;;5138744;27;20122;-77
2022/12/07 04:58:46;;;;;;;7.25;4.57;;;5.80;99.90;;;;;;5120122;27;20073;-76
2022/12/07 05:01:13;;;;;;;6.00;4.82;;;5.80;99.90;;;;;;5138980;27;20035;-76
2022/12/07 05:03:38;;;;;;;11.10;4.68;;;5.80;99.90;;;;;;5120797;27;20057;-76
2022/12/07 05:06:05;;;;;;;12.93;4.80;;;5.80;99.90;;;;;;5120336;27;20416;-76
2022/12/07 05:08:33;;;;;;;9.35;4.68;;;5.80;99.90;;;;;;5138804;27;20066;-77
2022/12/07 05:10:59;;;;;;;7.97;3.88;;;5.90;99.90;;;;;;5134059;27;20035;-77
2022/12/07 05:13:25;;;;;;;7.78;4.00;;;6.00;99.90;;;;;;5137473;27;20126;-77
2022/12/07 05:15:50;;;;;;;9.80;3.63;;;5.90;99.90;;;;;;5120296;27;20122;-77
2022/12/07 05:18:16;;;;;;;9.63;3.95;;;5.90;99.90;;;;;;5138640;27;20404;-76
2022/12/07 05:20:42;;;;;;;5.70;3.38;;;5.90;99.90;;;;;;5120086;27;20035;-77
2022/12/07 05:23:08;;;;;;;4.75;2.95;;;5.80;99.90;;;;;;5137841;27;20415;-76
2022/12/07 05:25:34;;;;;;;5.00;2.88;;;5.90;99.90;;;;;;5138238;27;20039;-76
2022/12/07 05:28:00;;;;;;;7.00;3.03;;;5.80;99.90;;;;;;5138096;27;20050;-76
2022/12/07 05:30:27;;;;;;;8.45;2.92;;;5.70;99.90;;;;;;5137690;27;20051;-77
2022/12/07 05:32:53;;;;;;;8.65;2.90;;;5.60;99.90;;;;;;5138169;27;20051;-76
2022/12/07 05:35:19;;;;;;;4.13;2.30;;;5.50;99.90;;;;;;5138122;27;20039;-76
2022/12/07 05:37:45;;;;;;;4.80;2.30;;;5.50;99.90;;;;;;5138064;27;20458;-76
2022/12/07 05:40:12;;;;;;;6.00;1.77;;;5.50;99.90;;;;;;5137868;27;20408;-76
2022/12/07 05:42:38;;;;;;;5.38;2.50;;;5.40;99.90;;;;;;5138109;27;20038;-76
2022/12/07 05:45:04;;;;;;;3.83;2.03;;;5.40;99.90;;;;;;5138134;27;20047;-78
2022/12/07 05:47:30;;;;;;;5.70;2.03;;;5.30;99.90;;;;;;5138094;27;20081;-76
2022/12/07 05:49:56;;;;;;;2.38;1.65;;;5.30;99.90;;;;;;5119533;27;20082;-76
2022/12/07 05:52:22;;;;;;;8.25;2.22;;;5.30;99.90;;;;;;5120046;27;20043;-76
2022/12/07 05:54:48;;;;;;;7.47;1.98;;;5.30;99.90;;;;;;5138015;27;20039;-77
2022/12/07 05:57:14;;;;;;;4.63;1.80;;;5.30;99.90;;;;;;5138001;27;20065;-76
2022/12/07 05:59:39;;;;;;;5.15;1.80;;;5.30;99.90;;;;;;5137491;27;20114;-76
2022/12/07 06:02:07;;;;;;;2.17;1.98;;;5.20;99.90;;;;;;5137761;27;20327;-76
2022/12/07 06:04:36;;;;;;;6.72;2.25;;;5.20;99.90;;;;;;5137593;27;20361;-76
2022/12/07 06:07:02;;;;;;;6.68;1.90;;;5.20;99.90;;;;;;5137549;27;20050;-76
2022/12/07 06:09:28;;;;;;;3.92;1.90;;;5.20;99.90;;;;;;5137541;27;20039;-77
2022/12/07 06:14:39;;;;;;;3.63;1.85;;;5.20;99.90;;;;;;5137606;27;20097;-76
2022/12/07 06:17:05;;;;;;;11.73;2.50;;;5.30;99.90;;;;;;5137515;27;20415;-76
2022/12/07 06:19:31;;;;;;;3.78;2.40;;;5.20;99.90;;;;;;5119293;28;20067;-76
2022/12/07 06:21:57;;;;;;;5.22;2.50;;;5.10;99.90;;;;;;5119417;28;20077;-76
2022/12/07 06:24:23;;;;;;;10.70;3.33;;;5.10;99.90;;;;;;5137224;28;20499;-76
2022/12/07 06:26:49;;;;;;;18.38;3.60;;;5.10;99.90;;;;;;5119657;28;20118;-76
2022/12/07 06:29:16;;;;;;;19.95;4.35;;;4.90;99.90;;;;;;5136882;28;20450;-76
2022/12/07 06:31:42;;;;;;;10.63;4.20;;;5.10;99.90;;;;;;5137416;28;20035;-76
2022/12/07 06:34:14;;;;;;;9.77;4.50;;;5.10;99.90;;;;;;5139938;27;20417;-76
2022/12/07 06:36:40;;;;;;;11.57;4.57;;;5.10;99.90;;;;;;5141510;27;20038;-76
2022/12/07 06:39:08;;;;;;;17.60;4.80;;;5.10;99.90;;;;;;5141522;27;20031;-76
2022/12/07 06:41:37;;;;;;;10.90;4.22;;;5.20;99.90;;;;;;5123506;27;20042;-79
2022/12/07 06:44:04;;;;;;;11.80;4.00;;;5.20;99.90;;;;;;5141392;27;20045;-76
2022/12/07 06:46:30;;;;;;;14.73;4.97;;;5.30;99.90;;;;;;5141557;27;20045;-76
2022/12/07 06:48:55;;;;;;;5.13;4.20;;;5.30;99.90;;;;;;5141579;27;20110;-76
2022/12/07 06:51:21;;;;;;;7.55;3.70;;;5.30;99.90;;;;;;5141081;27;20108;-76
2022/12/07 06:53:47;;;;;;;11.45;3.75;;;5.30;99.90;;;;;;5141202;27;20047;-75
2022/12/07 06:56:12;;;;;;;6.43;3.10;;;5.30;99.90;;;;;;5123290;27;20047;-76
2022/12/07 06:58:39;;;;;;;6.95;3.08;;;5.30;99.90;;;;;;5140918;27;20039;-76
2022/12/07 07:01:12;;;;;;;6.13;3.25;;;5.30;99.90;;;;;;5141105;27;20435;-76
2022/12/07 07:03:38;;;;;;;4.05;2.80;;;5.40;99.90;;;;;;5141127;27;20035;-77
2022/12/07 07:06:05;;;;;;;7.47;2.85;;;5.30;99.90;;;;;;5141328;27;20042;-75
2022/12/07 07:08:31;;;;;;;7.18;2.85;;;5.30;99.90;;;;;;5122705;27;20064;-76
2022/12/07 07:10:56;;;;;;;15.15;3.30;;;5.10;99.90;;;;;;5140921;27;20035;-76
2022/12/07 07:13:22;;;;;;;9.93;3.50;;;5.10;99.90;;;;;;5140893;27;20403;-76
2022/12/07 07:15:48;;;;;;;9.30;3.60;;;5.00;99.90;;;;;;5122526;27;20335;-75
2022/12/07 07:18:13;;;;;;;5.18;3.60;;;5.00;99.90;;;;;;5122734;27;20046;-76
2022/12/07 07:20:39;;;;;;;9.77;4.00;;;4.70;99.90;;;;;;5140980;27;20039;-75
2022/12/07 07:23:06;;;;;;;9.63;3.80;;;4.70;99.90;;;;;;5140579;27;20043;-75
2022/12/07 07:25:32;;;;;;;4.68;4.25;;;4.50;99.90;;;;;;5140711;27;20043;-76
2022/12/07 07:27:58;;;;;;;14.10;4.80;;;4.50;99.90;;;;;;5140896;27;20043;-75
2022/12/07 07:30:24;;;;;;;9.60;4.80;;;4.60;99.90;;;;;;5140299;27;20496;-75
2022/12/07 07:32:50;;;;;;;11.00;5.00;;;4.70;99.90;;;;;;5122471;27;20047;-76
2022/12/07 07:35:15;;;;;;;14.07;4.65;;;4.80;99.90;;;;;;5140212;27;20435;-76
2022/12/07 07:37:41;;;;;;;12.45;4.63;;;4.90;99.90;;;;;;5140621;27;20043;-76
2022/12/07 07:40:08;;;;;;;6.38;4.32;;;4.90;99.90;;;;;;5140572;27;20031;-75
2022/12/07 07:42:34;;;;;;;13.45;4.40;;;5.10;99.90;;;;;;5140585;27;20039;-75
2022/12/07 07:45:00;;;;;;;9.43;5.00;;;5.10;99.90;;;;;;5121657;27;20099;-76
2022/12/07 07:47:25;;;;;;;11.70;4.50;;;5.30;99.90;;;;;;5140420;27;20043;-76
2022/12/07 07:49:51;;;;;;;9.73;4.43;;;5.30;99.90;;;;;;5139953;27;20062;-75
2022/12/07 07:52:17;;;;;;;9.55;3.72;;;5.30;99.90;;;;;;5121849;27;20054;-76
2022/12/07 07:54:42;;;;;;;10.55;4.30;;;5.30;99.90;;;;;;5140241;27;20039;-76
2022/12/07 07:57:08;;;;;;;7.43;4.78;;;5.40;99.90;;;;;;5140181;27;20421;-75
2022/12/07 07:59:34;;;;;;;7.00;4.47;;;5.40;99.90;;;;;;5104348;27;20450;-75
2022/12/07 08:01:59;;;;;;;9.70;5.10;;;5.40;99.90;;;;;;5121809;27;20063;-76
2022/12/07 08:04:25;;;;;;;9.07;4.32;;;5.50;99.90;;;;;;5126868;27;20044;-76
2022/12/07 08:06:51;;;;;;;3.80;3.05;;;5.50;99.90;;;;;;5101288;28;20052;-76
2022/12/07 08:09:17;;;;;;;6.57;3.67;;;5.40;99.90;;;;;;5101042;28;20046;-73
2022/12/07 08:11:42;;;;;;;5.65;3.50;;;5.40;99.90;;;;;;5100945;28;20058;-75
2022/12/07 08:14:10;;;;;;;10.93;3.97;;;5.40;99.90;;;;;;5119190;28;20088;-71
2022/12/07 08:16:37;;;;;;;9.55;4.30;;;5.40;99.90;;;;;;5118908;28;20344;-74
2022/12/07 08:19:04;;;;;;;7.68;3.58;;;5.40;99.90;;;;;;5119159;28;20051;-73
2022/12/07 08:21:30;;;;;;;7.55;3.75;;;5.30;99.90;;;;;;5119172;28;20447;-72
2022/12/07 08:23:57;;;;;;;6.97;3.20;;;5.40;99.90;;;;;;5118890;28;20040;-72
2022/12/07 08:26:22;;;;;;;5.15;2.88;;;5.40;99.90;;;;;;5119122;28;20351;-71
2022/12/07 08:28:48;;;;;;;4.97;2.80;;;5.40;99.90;;;;;;5118724;28;20092;-72
2022/12/07 08:31:18;;;;;;;7.43;2.80;;;5.40;99.90;;;;;;5119052;28;20164;-72
2022/12/07 08:33:47;;;;;;;5.93;3.13;;;5.40;99.90;;;;;;5118577;28;20063;-75
2022/12/07 08:36:14;;;;;;;12.68;2.97;;;5.40;99.90;;;;;;5100444;28;20036;-72
2022/12/07 08:38:41;;;;;;;9.32;3.13;;;5.50;99.90;;;;;;5100530;28;20447;-71
2022/12/07 08:41:08;;;;;;;19.73;5.45;;;5.60;99.90;;;;;;5118431;28;20114;-71
2022/12/07 08:43:34;;;;;;;12.75;5.30;;;5.50;99.90;;;;;;5100533;28;20032;-71
2022/12/07 08:46:05;;;;;;;10.50;5.90;;;5.30;99.90;;;;;;5118582;28;20028;-72
2022/12/07 08:48:34;;;;;;;11.50;4.95;;;5.20;99.90;;;;;;5083496;28;20421;-72
2022/12/07 08:51:02;;;;;;;13.10;5.40;;;5.20;99.90;;;;;;5083284;28;20055;-72
2022/12/07 08:53:29;;;;;;;13.18;4.30;;;5.20;99.90;;;;;;5118369;28;20035;-71
2022/12/07 08:55:56;;;;;;;12.32;4.35;;;5.20;99.90;;;;;;5118161;28;20047;-71
2022/12/07 08:58:22;;;;;;;17.98;5.20;;;5.20;99.90;;;;;;5117572;28;20028;-72
2022/12/07 09:00:48;;;;;;;23.17;5.88;;;5.20;99.90;;;;;;5118005;28;20154;-71
2022/12/07 09:03:14;;;;;;;18.45;5.20;;;5.10;99.90;;;;;;5083388;28;20079;-72
2022/12/07 09:05:40;;;;;;;15.30;4.60;;;5.10;99.90;;;;;;5118175;28;20421;-72
2022/12/07 09:08:06;;;;;;;10.98;4.82;;;5.10;99.90;;;;;;5118005;28;20044;-72
2022/12/07 09:10:32;;;;;;;17.02;5.90;;;5.20;99.90;;;;;;5118135;28;20039;-72
2022/12/07 09:13:01;;;;;;;9.38;5.22;;;5.30;99.90;;;;;;5117845;28;20099;-73
2022/12/07 09:15:28;;;;;;;16.70;7.45;;;5.50;99.90;;;;;;5099951;28;20092;-72
2022/12/07 09:17:54;;;;;;;15.80;6.10;;;5.70;99.90;;;;;;5117749;28;20428;-72
2022/12/07 09:20:20;;;;;;;18.25;5.85;;;5.80;99.90;;;;;;5117886;28;20096;-72
2022/12/07 09:22:45;;;;;;;14.80;4.90;;;5.80;99.90;;;;;;5117716;28;20031;-72
2022/12/07 09:25:11;;;;;;;21.42;5.70;;;5.70;99.90;;;;;;5118014;28;20088;-73
2022/12/07 09:27:37;;;;;;;18.23;6.20;;;5.70;99.90;;;;;;5099766;28;20043;-73
2022/12/07 09:30:04;;;;;;;14.05;5.32;;;5.90;99.90;;;;;;5099172;28;20105;-72
2022/12/07 09:32:29;;;;;;;11.68;4.93;;;5.90;99.90;;;;;;5099472;28;20488;-73
2022/12/07 09:34:55;;;;;;;20.15;5.85;;;6.00;99.90;;;;;;5117744;28;20043;-72
2022/12/07 09:37:21;;;;;;;12.38;4.68;;;6.10;99.90;;;;;;5082481;28;20042;-72
2022/12/07 09:39:47;;;;;;;14.35;4.68;;;6.30;99.90;;;;;;5099582;28;20075;-72
2022/12/07 09:42:39;;;;;;;8.30;3.95;;;6.30;99.90;;;;;;5117235;28;20078;-72
2022/12/07 09:45:07;;;;;;;8.57;4.40;;;6.20;99.90;;;;;;5089002;28;20063;-71
2022/12/07 09:47:33;;;;;;;10.82;4.88;;;6.10;99.90;;;;;;5117225;28;20039;-71
2022/12/07 09:50:12;;;;;;;6.03;4.05;;;6.10;99.90;;;;;;5117147;28;20059;-72
2022/12/07 09:52:39;;;;;;;8.23;3.67;;;5.90;99.90;;;;;;5117144;28;20122;-71
2022/12/07 09:55:13;;;;;;;14.90;4.00;;;5.70;99.90;;;;;;5082401;28;20062;-72
2022/12/07 09:57:39;;;;;;;10.93;4.68;;;5.80;99.90;;;;;;5117235;28;20409;-72
2022/12/07 10:00:16;;;;;;;10.68;4.45;;;5.80;99.90;;;;;;5081998;28;20348;-72
2022/12/07 10:02:58;;;;;;;17.20;4.72;;;6.00;99.90;;;;;;5099129;28;20467;-76
2022/12/07 10:05:30;;;;;;;16.88;4.80;;;6.10;99.90;;;;;;5117271;28;20052;-72
2022/12/07 10:07:56;;;;;;;17.05;4.80;;;6.20;99.90;;;;;;5098695;28;20078;-70
2022/12/07 10:10:38;;;;;;;9.88;4.13;;;6.30;99.90;;;;;;5099333;28;20082;-70
2022/12/07 10:13:15;;;;;;;13.57;4.57;;;6.30;99.90;;;;;;5116924;28;20417;-70
2022/12/07 10:15:45;;;;;;;17.45;4.80;;;6.40;99.90;;;;;;5117015;28;20031;-70
2022/12/07 10:18:40;;;;;;;14.82;4.53;;;6.30;99.90;;;;;;5099143;28;20077;-70
2022/12/07 10:21:26;;;;;;;11.18;3.97;;;6.20;99.90;;;;;;5098895;28;20036;-73
2022/12/07 10:24:10;;;;;;;12.98;3.83;;;6.50;99.90;;;;;;5082167;28;20104;-71
2022/12/07 10:26:41;;;;;;;7.53;3.60;;;6.90;99.90;;;;;;5116733;28;20117;-70
2022/12/07 10:29:21;;;;;;;8.75;3.53;;;6.90;99.90;;;;;;5098324;28;20081;-70
2022/12/07 10:31:53;;;;;;;13.00;4.40;;;7.00;99.90;;;;;;5116876;28;20031;-71
2022/12/07 10:34:30;;;;;;;8.05;3.33;;;7.10;99.90;;;;;;5098566;28;20039;-71
2022/12/07 10:37:17;;;;;;;8.70;3.55;;;7.00;99.90;;;;;;5117012;28;20109;-71
2022/12/07 10:39:44;;;;;;;15.73;4.45;;;7.20;99.90;;;;;;5116610;28;20119;-70
2022/12/07 10:42:23;;;;;;;12.73;4.88;;;7.40;99.90;;;;;;5098573;28;20039;-71
2022/12/07 10:44:50;;;;;;;12.70;4.20;;;7.50;99.90;;;;;;5116809;28;20302;-72
2022/12/07 10:47:32;;;;;;;7.20;3.50;;;7.60;99.90;;;;;;5116949;28;20383;-71
2022/12/07 10:50:17;;;;;;;12.95;3.45;;;7.80;99.90;;;;;;5116593;28;20397;-71
2022/12/07 10:53:01;;;;;;;9.48;3.20;;;7.80;99.90;;;;;;5116484;28;20432;-71
2022/12/07 10:55:43;;;;;;;12.15;3.00;;;7.70;99.90;;;;;;5153088;27;20423;-71
2022/12/07 10:58:31;;;;;;;13.93;3.63;;;7.80;99.90;;;;;;5139597;27;20412;-71
2022/12/07 11:01:21;;;;;;;10.75;3.25;;;7.70;99.90;;;;;;5138923;27;20042;-76
2022/12/07 11:04:17;;;;;;;6.25;2.75;;;7.70;99.90;;;;;;5157883;27;20042;-73
2022/12/07 11:07:13;;;;;;;9.90;3.25;;;7.70;99.90;;;;;;5139480;27;20037;-72
2022/12/07 11:10:14;;;;;;;10.15;4.10;;;7.60;99.90;;;;;;5139322;27;20373;-73
2022/12/07 11:13:01;;;;;;;7.20;4.03;;;7.50;99.90;;;;;;5066344;27;20076;-72
2022/12/07 11:15:50;;;;;;;17.77;4.95;;;7.60;99.90;;;;;;5157657;27;20316;-71
2022/12/07 11:18:24;;;;;;;9.52;3.00;;;7.50;99.90;;;;;;5138992;27;20089;-72
2022/12/07 11:21:11;;;;;;;8.48;3.53;;;6.70;99.90;;;;;;5141726;27;20038;-72
2022/12/07 11:23:52;;;;;;;9.95;3.10;;;6.20;99.90;;;;;;5161408;27;20066;-72
2022/12/07 11:26:17;;;;;;;6.05;3.03;;;6.00;99.90;;;;;;5125882;27;20045;-71
2022/12/07 11:29:34;;;;;;;7.57;3.38;;;5.80;99.90;;;;;;5143066;27;20047;-72
2022/12/07 11:32:00;;;;;;;5.83;3.60;;;5.80;99.90;;;;;;5100816;27;20074;-71
2022/12/07 11:34:35;;;;;;;7.30;3.72;;;6.00;99.90;;;;;;5143206;27;20397;-71
2022/12/07 11:37:02;;;;;;;10.25;4.00;;;6.10;99.90;;;;;;5142992;27;20031;-71
2022/12/07 11:39:28;;;;;;;13.77;4.10;;;6.30;99.90;;;;;;5142964;27;20081;-71
2022/12/07 11:42:01;;;;;;;8.38;4.40;;;6.40;99.90;;;;;;5161205;27;20419;-72
2022/12/07 11:45:01;;;;;;;13.55;4.07;;;6.60;99.90;;;;;;5125672;27;20034;-71
2022/12/07 11:47:36;;;;;;;6.70;4.20;;;6.80;99.90;;;;;;5161069;27;20141;-70
2022/12/07 11:50:30;;;;;;;7.72;4.45;;;6.80;99.90;;;;;;5160749;27;20057;-69
2022/12/07 11:53:08;;;;;;;7.68;3.72;;;6.80;99.90;;;;;;5161049;27;20061;-71
2022/12/07 11:55:57;;;;;;;8.50;3.00;;;6.90;99.90;;;;;;5161084;27;20039;-74
2022/12/07 11:58:47;;;;;;;19.25;3.72;;;6.70;99.90;;;;;;5160885;27;20094;-73
2022/12/07 12:01:20;;;;;;;5.30;3.00;;;6.80;99.90;;;;;;5160548;27;20077;-73
2022/12/07 12:03:49;;;;;;;6.32;3.05;;;6.90;99.90;;;;;;5142605;27;20031;-73
2022/12/07 12:06:15;;;;;;;6.55;3.00;;;7.10;99.90;;;;;;5142661;27;20035;-74
2022/12/07 12:08:55;;;;;;;6.95;3.63;;;7.30;99.90;;;;;;5160846;27;20095;-74
2022/12/07 12:12:05;;;;;;;7.57;3.05;;;7.80;99.90;;;;;;5160481;27;20118;-72
2022/12/07 12:14:49;;;;;;;11.60;3.30;;;8.00;99.90;;;;;;5116857;27;20047;-74
2022/12/07 12:17:23;;;;;;;7.82;3.53;;;8.10;99.90;;;;;;5117607;28;20175;-73
2022/12/07 12:20:18;;;;;;;6.93;3.28;;;7.80;99.90;;;;;;5118856;28;20031;-73
2022/12/07 12:22:47;;;;;;;6.75;3.30;;;7.60;99.90;;;;;;5101735;27;20035;-73
2022/12/07 12:25:27;;;;;;;8.52;2.92;;;7.60;99.90;;;;;;5138535;27;20043;-74
2022/12/07 12:27:55;;;;;;;9.65;3.35;;;7.30;99.90;;;;;;5139602;27;20042;-73
2022/12/07 12:30:38;;;;;;;12.32;3.45;;;7.50;99.90;;;;;;5120991;27;20050;-73
2022/12/07 12:33:28;;;;;;;8.85;2.72;;;7.60;99.90;;;;;;5139515;27;20050;-73
2022/12/07 12:36:25;;;;;;;11.70;3.20;;;7.50;99.90;;;;;;5102603;28;20378;-74
2022/12/07 12:39:16;;;;;;;8.38;2.45;;;7.30;99.90;;;;;;5116823;28;20051;-73
2022/12/07 12:44:19;;;;;;;6.18;2.65;;;7.40;99.90;;;;;;5100867;28;20356;-73
2022/12/07 12:46:52;;;;;;;7.80;2.47;;;7.30;99.90;;;;;;5101024;28;20055;-73
2022/12/07 12:49:19;;;;;;;15.98;3.38;;;7.40;99.90;;;;;;5100543;28;20040;-73
2022/12/07 12:51:47;;;;;;;11.07;2.30;;;7.50;99.90;;;;;;5118387;28;20039;-73
2022/12/07 12:54:18;;;;;;;7.10;1.80;;;7.80;99.90;;;;;;5100064;28;20047;-73
2022/12/07 12:56:55;;;;;;;8.40;2.63;;;7.90;99.90;;;;;;5118624;28;20114;-73
2022/12/07 12:59:21;;;;;;;7.85;2.42;;;7.80;99.90;;;;;;5118053;28;20294;-73
2022/12/07 13:01:48;;;;;;;15.75;3.85;;;7.50;99.90;;;;;;5100345;28;20043;-73
2022/12/07 13:04:27;;;;;;;6.00;2.70;;;7.50;99.90;;;;;;5100342;28;20054;-73
2022/12/07 13:06:53;;;;;;;9.25;2.10;;;7.30;99.90;;;;;;5100292;28;20122;-73
2022/12/07 13:09:27;;;;;;;10.93;2.60;;;7.00;99.90;;;;;;5100054;28;20126;-73
2022/12/07 13:12:00;;;;;;;10.48;2.58;;;6.80;99.90;;;;;;5118057;28;20093;-73
2022/12/07 13:14:58;;;;;;;6.22;2.70;;;6.50;99.90;;;;;;5118191;28;20070;-73
2022/12/07 13:17:33;;;;;;;5.07;2.58;;;6.60;99.90;;;;;;5117914;28;20039;-73
2022/12/07 13:20:03;;;;;;;9.20;2.80;;;6.60;99.90;;;;;;5117760;28;20050;-73